createdAt,value
2019-02-04T00:01:08.410Z,91.61
2019-02-04T00:03:35.791Z,91.75
2019-02-04T00:06:03.500Z,91.79
2019-02-04T00:08:30.900Z,91.92
2019-02-04T00:10:59.344Z,91.92
2019-02-04T00:13:27.015Z,91.97
2019-02-04T00:15:54.506Z,92.05
2019-02-04T00:18:21.946Z,92.01
2019-02-04T00:20:49.406Z,92.03
2019-02-04T00:23:17.291Z,92.13
2019-02-04T00:25:44.670Z,92.05
2019-02-04T00:28:12.139Z,92.05
2019-02-04T00:30:39.651Z,92.11
2019-02-04T00:33:07.130Z,92.09
2019-02-04T00:35:34.548Z,92.07
2019-02-04T00:38:01.970Z,91.93
2019-02-04T00:40:29.895Z,91.95
2019-02-04T00:42:57.320Z,91.95
2019-02-04T00:45:24.780Z,91.96
2019-02-04T00:47:52.385Z,92.00
2019-02-04T00:50:19.990Z,91.85
2019-02-04T00:52:47.420Z,91.83
2019-02-04T00:55:15.069Z,92.11
2019-02-04T00:57:42.899Z,92.11
2019-02-04T01:00:29.840Z,92.23
2019-02-04T01:02:57.734Z,92.25
2019-02-04T01:05:25.509Z,92.17
2019-02-04T01:07:53.140Z,92.33
2019-02-04T01:10:22.890Z,92.49
2019-02-04T01:12:50.431Z,92.60
2019-02-04T01:15:17.995Z,92.64
2019-02-04T01:17:45.560Z,92.81
2019-02-04T01:20:19.041Z,92.95
2019-02-04T01:22:46.610Z,93.00
2019-02-04T01:25:14.090Z,93.01
2019-02-04T01:27:41.525Z,93.05
2019-02-04T01:30:10.020Z,93.08
2019-02-04T01:32:37.495Z,93.09
2019-02-04T01:35:05.010Z,92.93
2019-02-04T01:37:32.904Z,92.93
2019-02-04T01:40:00.928Z,92.86
2019-02-04T01:42:28.387Z,92.83
2019-02-04T01:44:55.782Z,92.73
2019-02-04T01:47:23.177Z,92.77
2019-02-04T01:49:50.751Z,92.88
2019-02-04T01:52:18.175Z,92.99
2019-02-04T01:54:45.610Z,92.97
2019-02-04T01:57:13.335Z,92.97
2019-02-04T01:59:40.786Z,92.83
2019-02-04T02:02:08.200Z,92.91
2019-02-04T02:04:35.695Z,92.99
2019-02-04T02:07:03.625Z,93.14
2019-02-04T02:09:31.071Z,93.00
2019-02-04T02:11:58.440Z,93.01
2019-02-04T02:14:25.989Z,92.98
2019-02-04T02:16:53.527Z,92.74
2019-02-04T02:19:20.960Z,92.58
2019-02-04T02:21:48.364Z,92.34
2019-02-04T02:24:15.815Z,92.13
2019-02-04T02:26:43.190Z,91.98
2019-02-04T02:29:12.010Z,91.96
2019-02-04T02:31:39.420Z,91.87
2019-02-04T02:34:06.887Z,91.97
2019-02-04T02:36:34.289Z,92.11
2019-02-04T02:39:01.818Z,92.23
2019-02-04T02:41:29.205Z,92.23
2019-02-04T02:43:56.650Z,92.22
2019-02-04T02:46:24.645Z,92.22
2019-02-04T02:48:52.087Z,92.19
2019-02-04T02:51:19.472Z,92.19
2019-02-04T02:53:46.930Z,92.35
2019-02-04T02:56:14.310Z,92.25
2019-02-04T02:58:41.830Z,92.21
2019-02-04T03:01:09.480Z,92.21
2019-02-04T03:03:39.388Z,92.33
2019-02-04T03:06:06.845Z,92.12
2019-02-04T03:08:34.275Z,92.10
2019-02-04T03:11:01.710Z,92.25
2019-02-04T03:13:29.185Z,92.27
2019-02-04T03:15:56.655Z,92.27
2019-02-04T03:18:24.005Z,92.13
2019-02-04T03:20:51.575Z,92.14
2019-02-04T03:23:18.972Z,92.15
2019-02-04T03:25:46.385Z,92.17
2019-02-04T03:28:13.784Z,92.00
2019-02-04T03:30:41.225Z,91.90
2019-02-04T03:33:08.613Z,91.81
2019-02-04T03:35:36.050Z,91.63
2019-02-04T03:38:03.528Z,91.34
2019-02-04T03:40:32.191Z,91.31
2019-02-04T03:42:59.585Z,91.27
2019-02-04T03:45:27.142Z,91.29
2019-02-04T03:48:04.333Z,91.28
2019-02-04T03:50:24.062Z,91.14
2019-02-04T03:52:52.070Z,91.05
2019-02-04T03:55:19.801Z,91.03
2019-02-04T03:57:47.193Z,90.99
2019-02-04T04:00:23.461Z,90.89
2019-02-04T04:02:51.065Z,90.89
2019-02-04T04:05:18.866Z,91.16
2019-02-04T04:07:46.321Z,91.02
2019-02-04T04:10:13.958Z,91.16
2019-02-04T04:12:41.428Z,90.92
2019-02-04T04:15:09.555Z,91.12
2019-02-04T04:17:36.916Z,91.47
2019-02-04T04:20:05.570Z,91.72
2019-02-04T04:22:33.390Z,92.02
2019-02-04T04:25:00.810Z,92.07
2019-02-04T04:27:28.262Z,92.28
2019-02-04T04:29:55.661Z,92.45
2019-02-04T04:32:23.116Z,92.84
2019-02-04T04:34:50.560Z,93.22
2019-02-04T04:37:18.024Z,93.49
2019-02-04T04:39:46.252Z,93.56
2019-02-04T04:42:13.710Z,93.57
2019-02-04T04:44:41.071Z,93.61
2019-02-04T04:47:08.626Z,93.55
2019-02-04T04:49:36.120Z,93.65
2019-02-04T04:52:03.771Z,93.55
2019-02-04T04:54:31.150Z,93.37
2019-02-04T04:56:58.950Z,93.26
2019-02-04T04:59:26.345Z,93.10
2019-02-04T05:01:53.887Z,92.85
2019-02-04T05:04:21.335Z,92.51
2019-02-04T05:06:48.770Z,92.30
2019-02-04T05:09:16.201Z,92.15
2019-02-04T05:11:43.620Z,92.07
2019-02-04T05:14:11.470Z,91.94
2019-02-04T05:16:38.950Z,91.78
2019-02-04T05:19:06.340Z,91.59
2019-02-04T05:21:33.786Z,91.44
2019-02-04T05:24:01.205Z,91.35
2019-02-04T05:26:28.715Z,91.27
2019-02-04T05:28:56.090Z,91.18
2019-02-04T05:31:23.536Z,91.13
2019-02-04T05:33:50.930Z,91.03
2019-02-04T05:36:18.390Z,90.91
2019-02-04T05:38:45.770Z,90.81
2019-02-04T05:41:13.185Z,90.70
2019-02-04T05:43:40.645Z,90.75
2019-02-04T05:46:08.187Z,90.78
2019-02-04T05:48:35.616Z,90.86
2019-02-04T05:51:03.036Z,90.81
2019-02-04T05:53:30.520Z,90.77
2019-02-04T05:55:57.906Z,90.58
2019-02-04T05:58:25.370Z,90.29
2019-02-04T06:00:52.853Z,90.25
2019-02-04T06:03:20.331Z,90.25
2019-02-04T06:05:47.740Z,90.44
2019-02-04T06:08:15.191Z,90.67
2019-02-04T06:10:42.661Z,90.81
2019-02-04T06:13:10.272Z,91.03
2019-02-04T06:15:37.835Z,91.11
2019-02-04T06:18:05.761Z,91.16
2019-02-04T06:20:33.633Z,90.91
2019-02-04T06:23:01.111Z,90.46
2019-02-04T06:25:34.448Z,90.10
2019-02-04T06:28:01.901Z,89.78
2019-02-04T06:30:29.345Z,89.34
2019-02-04T06:32:56.798Z,89.13
2019-02-04T06:35:24.177Z,88.96
2019-02-04T06:37:51.740Z,88.94
2019-02-04T06:40:19.184Z,89.11
2019-02-04T06:42:46.581Z,89.28
2019-02-04T06:45:14.232Z,89.37
2019-02-04T06:47:41.620Z,89.37
2019-02-04T06:50:11.410Z,89.42
2019-02-04T06:52:39.188Z,89.36
2019-02-04T06:55:09.980Z,89.18
2019-02-04T06:57:37.400Z,88.93
2019-02-04T07:00:06.605Z,88.76
2019-02-04T07:02:34.000Z,88.56
2019-02-04T07:05:01.588Z,88.38
2019-02-04T07:07:28.955Z,88.14
2019-02-04T07:09:56.643Z,88.04
2019-02-04T07:12:24.016Z,87.88
2019-02-04T07:14:51.710Z,87.59
2019-02-04T07:17:19.132Z,87.41
2019-02-04T07:19:46.596Z,87.33
2019-02-04T07:22:13.976Z,86.76
2019-02-04T07:24:43.109Z,85.63
2019-02-04T07:27:10.815Z,84.64
2019-02-04T07:29:38.405Z,83.60
2019-02-04T07:32:05.800Z,82.86
2019-02-04T07:34:33.256Z,82.03
2019-02-04T07:37:00.670Z,81.60
2019-02-04T07:39:28.095Z,81.06
2019-02-04T07:41:55.501Z,80.62
2019-02-04T07:44:23.363Z,80.15
2019-02-04T07:46:50.827Z,79.18
2019-02-04T07:49:18.245Z,79.00
2019-02-04T07:51:45.675Z,78.02
2019-02-04T07:54:13.110Z,76.89
2019-02-04T07:56:40.511Z,76.60
2019-02-04T07:59:08.010Z,76.31
2019-02-04T08:01:35.760Z,76.58
2019-02-04T08:04:03.290Z,74.85
2019-02-04T08:06:30.720Z,74.83
2019-02-04T08:08:58.176Z,74.96
2019-02-04T08:11:25.614Z,74.93
2019-02-04T08:13:53.090Z,75.88
2019-02-04T08:16:20.568Z,76.15
2019-02-04T08:18:47.970Z,77.03
2019-02-04T08:21:15.410Z,77.98
2019-02-04T08:23:42.846Z,78.60
2019-02-04T08:26:10.320Z,79.41
2019-02-04T08:28:37.792Z,79.42
2019-02-04T08:31:05.355Z,79.00
2019-02-04T08:33:32.744Z,79.49
2019-02-04T08:36:00.611Z,79.86
2019-02-04T08:38:28.018Z,79.37
2019-02-04T08:40:55.455Z,79.92
2019-02-04T08:43:22.886Z,80.09
2019-02-04T08:45:50.350Z,79.88
2019-02-04T08:48:17.828Z,79.42
2019-02-04T08:50:45.280Z,79.55
2019-02-04T08:53:13.042Z,79.87
2019-02-04T08:55:40.500Z,79.90
2019-02-04T08:58:08.159Z,80.11
2019-02-04T09:00:35.687Z,79.50
2019-02-04T09:03:03.198Z,78.92
2019-02-04T09:05:30.628Z,79.17
2019-02-04T09:07:58.039Z,79.57
2019-02-04T09:10:30.312Z,79.25
2019-02-04T09:12:58.315Z,78.88
2019-02-04T09:15:25.858Z,79.20
2019-02-04T09:17:53.430Z,78.80
2019-02-04T09:20:20.867Z,78.43
2019-02-04T09:22:48.410Z,78.57
2019-02-04T09:25:16.663Z,78.41
2019-02-04T09:27:44.145Z,77.84
2019-02-04T09:30:19.618Z,78.27
2019-02-04T09:32:47.301Z,77.91
2019-02-04T09:35:15.775Z,78.13
2019-02-04T09:37:43.233Z,77.83
2019-02-04T09:40:16.958Z,78.18
2019-02-04T09:42:44.893Z,78.07
2019-02-04T09:45:13.804Z,78.13
2019-02-04T09:47:41.323Z,77.83
2019-02-04T09:50:21.515Z,78.04
2019-02-04T09:52:40.569Z,78.02
2019-02-04T09:55:12.571Z,77.76
2019-02-04T09:57:40.388Z,76.42
2019-02-04T10:00:10.201Z,76.55
2019-02-04T10:02:37.638Z,76.93
2019-02-04T10:05:06.154Z,76.32
2019-02-04T10:07:33.612Z,75.92
2019-02-04T10:10:01.013Z,76.04
2019-02-04T10:12:28.534Z,75.42
2019-02-04T10:14:56.453Z,75.71
2019-02-04T10:17:24.015Z,75.00
2019-02-04T10:19:51.511Z,74.53
2019-02-04T10:22:19.071Z,74.65
2019-02-04T10:24:46.547Z,74.43
2019-02-04T10:27:13.996Z,74.30
2019-02-04T10:29:41.529Z,74.02
2019-02-04T10:32:09.088Z,73.43
2019-02-04T10:34:36.681Z,72.19
2019-02-04T10:37:04.230Z,71.65
2019-02-04T10:39:31.722Z,71.32
2019-02-04T10:41:59.151Z,71.67
2019-02-04T10:44:26.526Z,70.78
2019-02-04T10:46:54.307Z,70.25
2019-02-04T10:49:21.735Z,70.17
2019-02-04T10:51:49.266Z,69.96
2019-02-04T10:54:16.833Z,69.51
2019-02-04T10:56:44.233Z,69.28
2019-02-04T10:59:11.727Z,68.68
2019-02-04T11:01:39.194Z,68.72
2019-02-04T11:04:06.892Z,67.62
2019-02-04T11:06:34.424Z,67.67
2019-02-04T11:09:01.937Z,67.92
2019-02-04T11:11:29.430Z,68.31
2019-02-04T11:13:57.013Z,67.25
2019-02-04T11:16:24.904Z,67.02
2019-02-04T11:18:52.592Z,66.38
2019-02-04T11:21:20.027Z,67.08
2019-02-04T11:23:47.487Z,67.46
2019-02-04T11:26:15.513Z,67.30
2019-02-04T11:28:43.616Z,67.58
2019-02-04T11:31:11.812Z,66.39
2019-02-04T11:33:39.891Z,66.72
2019-02-04T11:36:07.946Z,66.38
2019-02-04T11:38:36.207Z,66.78
2019-02-04T11:41:04.033Z,66.34
2019-02-04T11:43:31.563Z,66.62
2019-02-04T11:45:59.074Z,67.30
2019-02-04T11:48:26.716Z,66.39
2019-02-04T11:50:54.212Z,67.20
2019-02-04T11:53:32.250Z,66.67
2019-02-04T11:55:50.979Z,66.99
2019-02-04T11:58:18.472Z,66.49
2019-02-04T12:00:45.994Z,66.38
2019-02-04T12:03:14.512Z,66.26
2019-02-04T12:05:41.946Z,66.51
2019-02-04T12:08:09.996Z,66.59
2019-02-04T12:10:40.690Z,66.18
2019-02-04T12:13:08.099Z,65.81
2019-02-04T12:15:35.836Z,65.69
2019-02-04T12:18:03.486Z,65.98
2019-02-04T12:20:30.967Z,66.37
2019-02-04T12:29:09.416Z,65.74
2019-02-04T12:31:37.377Z,65.49
2019-02-04T12:34:07.284Z,65.14
2019-02-04T12:36:34.886Z,65.00
2019-02-04T12:39:10.599Z,64.99
2019-02-04T12:41:37.872Z,64.70
2019-02-04T12:44:07.066Z,64.49
2019-02-04T12:46:34.666Z,63.82
2019-02-04T12:49:42.075Z,64.61
2019-02-04T12:53:04.660Z,63.38
2019-02-04T12:55:32.511Z,63.70
2019-02-04T12:58:00.152Z,63.48
2019-02-04T13:04:13.481Z,63.29
2019-02-04T13:29:07.306Z,63.11
2019-02-04T13:34:47.976Z,62.81
2019-02-04T15:55:05.805Z,63.69
2019-02-04T16:14:15.817Z,64.38
2019-02-04T16:15:42.972Z,64.10
2019-02-04T16:18:49.980Z,64.22
2019-02-04T16:19:01.816Z,63.78
2019-02-04T17:25:23.435Z,62.94
2019-02-04T17:39:15.295Z,62.79
2019-02-04T18:03:50.408Z,62.33
2019-02-04T18:07:31.898Z,62.71
2019-02-04T18:32:39.979Z,62.90
2019-02-04T18:39:13.251Z,63.16
2019-02-04T18:42:02.610Z,63.57
2019-02-04T18:45:33.998Z,63.30
2019-02-04T18:49:19.785Z,63.45
2019-02-04T19:27:53.358Z,63.76
2019-02-04T21:28:44.186Z,63.50
2019-02-04T21:31:12.132Z,63.62
2019-02-04T21:33:40.175Z,63.55
2019-02-04T21:36:08.751Z,63.93
2019-02-04T21:38:37.861Z,63.89
2019-02-04T21:41:05.842Z,63.89
2019-02-04T21:43:33.706Z,63.92
2019-02-04T21:46:01.759Z,64.30
2019-02-04T21:48:30.651Z,64.30
2019-02-04T21:50:58.726Z,64.39
2019-02-04T21:53:26.696Z,64.20
2019-02-04T21:55:54.611Z,64.42
2019-02-04T21:58:22.586Z,64.49
2019-02-04T22:00:50.387Z,64.75
2019-02-04T22:03:18.286Z,64.97
2019-02-04T22:05:46.310Z,64.84
2019-02-04T22:08:13.891Z,65.01
2019-02-04T22:10:42.091Z,65.20
2019-02-04T22:13:09.756Z,65.26
2019-02-04T22:15:38.026Z,65.30
2019-02-04T22:18:06.186Z,65.38
2019-02-04T22:20:34.192Z,65.49
2019-02-04T22:23:01.718Z,65.86
2019-02-04T22:25:29.245Z,66.07
2019-02-04T22:27:56.636Z,66.08
2019-02-04T22:30:25.921Z,66.27
2019-02-04T22:32:53.401Z,66.59
2019-02-04T22:35:20.987Z,66.85
2019-02-04T22:37:48.617Z,67.12
2019-02-04T22:40:29.743Z,67.03
2019-02-04T22:42:57.898Z,66.82
2019-02-04T22:45:25.461Z,66.95
2019-02-04T22:47:52.873Z,66.89
2019-02-04T22:50:27.161Z,66.96
2019-02-04T22:52:54.958Z,67.00
2019-02-04T22:55:31.475Z,67.01
2019-02-04T22:57:52.255Z,66.96
2019-02-04T23:00:58.778Z,66.92
2019-02-04T23:03:26.601Z,67.00
2019-02-04T23:05:54.182Z,67.14
2019-02-04T23:08:21.945Z,67.20
2019-02-04T23:10:49.526Z,67.13
2019-02-04T23:13:17.087Z,67.46
2019-02-04T23:15:44.637Z,67.44
2019-02-04T23:18:12.473Z,67.39
2019-02-04T23:20:40.066Z,67.19
2019-02-04T23:23:08.042Z,67.63
2019-02-04T23:25:42.976Z,67.65
2019-02-04T23:28:05.326Z,67.56
2019-02-04T23:30:32.916Z,67.75
2019-02-04T23:33:00.917Z,67.58
2019-02-04T23:35:28.366Z,67.87
2019-02-04T23:37:55.788Z,68.17
2019-02-04T23:40:23.228Z,67.76
2019-02-04T23:42:50.756Z,67.99
2019-02-04T23:45:18.310Z,68.06
2019-02-04T23:47:45.781Z,68.12
2019-02-04T23:50:13.883Z,68.34
2019-02-04T23:52:41.336Z,67.96
2019-02-04T23:55:08.966Z,68.30
2019-02-04T23:57:36.486Z,68.13
